sensor_id;sensor_type;location;lat;lon;timestamp;P1;P2;P0
55518;PMS5003;41724;51.176;-0.708;2022-07-10T00:00:38;8;8;
55518;PMS5003;41724;51.176;-0.708;2022-07-10T00:03:06;10;10;
55518;PMS5003;41724;51.176;-0.708;2022-07-10T00:05:33;9;9;
55518;PMS5003;41724;51.176;-0.708;2022-07-10T00:08:00;10;10;
55518;PMS5003;41724;51.176;-0.708;2022-07-10T00:10:27;9;9;
55518;PMS5003;41724;51.176;-0.708;2022-07-10T00:12:55;13;12;
55518;PMS5003;41724;51.176;-0.708;2022-07-10T00:15:22;9;9;
55518;PMS5003;41724;51.176;-0.708;2022-07-10T00:17:49;12;12;
55518;PMS5003;41724;51.176;-0.708;2022-07-10T00:20:16;12;9;
55518;PMS5003;41724;51.176;-0.708;2022-07-10T00:22:43;10;10;
55518;PMS5003;41724;51.176;-0.708;2022-07-10T00:25:11;12;12;
55518;PMS5003;41724;51.176;-0.708;2022-07-10T00:27:40;10;10;
55518;PMS5003;41724;51.176;-0.708;2022-07-10T00:30:09;10;9;
55518;PMS5003;41724;51.176;-0.708;2022-07-10T00:32:36;11;11;
55518;PMS5003;41724;51.176;-0.708;2022-07-10T00:35:05;9;9;
55518;PMS5003;41724;51.176;-0.708;2022-07-10T00:37:33;11;10;
55518;PMS5003;41724;51.176;-0.708;2022-07-10T00:40:00;11;11;
55518;PMS5003;41724;51.176;-0.708;2022-07-10T00:42:27;10;10;
55518;PMS5003;41724;51.176;-0.708;2022-07-10T00:44:54;11;11;
55518;PMS5003;41724;51.176;-0.708;2022-07-10T00:47:22;9;9;
55518;PMS5003;41724;51.176;-0.708;2022-07-10T00:49:49;11;10;
55518;PMS5003;41724;51.176;-0.708;2022-07-10T00:52:17;12;12;
55518;PMS5003;41724;51.176;-0.708;2022-07-10T00:54:47;9;9;
55518;PMS5003;41724;51.176;-0.708;2022-07-10T00:57:15;9;9;
55518;PMS5003;41724;51.176;-0.708;2022-07-10T00:59:44;10;10;
55518;PMS5003;41724;51.176;-0.708;2022-07-10T01:02:12;12;12;
55518;PMS5003;41724;51.176;-0.708;2022-07-10T01:04:40;10;10;
55518;PMS5003;41724;51.176;-0.708;2022-07-10T01:07:07;10;10;
55518;PMS5003;41724;51.176;-0.708;2022-07-10T01:09:34;9;9;
55518;PMS5003;41724;51.176;-0.708;2022-07-10T01:12:02;9;9;
55518;PMS5003;41724;51.176;-0.708;2022-07-10T01:14:31;6;6;
55518;PMS5003;41724;51.176;-0.708;2022-07-10T01:16:58;7;7;
55518;PMS5003;41724;51.176;-0.708;2022-07-10T01:19:25;11;9;
55518;PMS5003;41724;51.176;-0.708;2022-07-10T01:21:53;9;9;
55518;PMS5003;41724;51.176;-0.708;2022-07-10T01:24:20;8;8;
55518;PMS5003;41724;51.176;-0.708;2022-07-10T01:26:48;10;8;
55518;PMS5003;41724;51.176;-0.708;2022-07-10T01:29:15;7;7;
55518;PMS5003;41724;51.176;-0.708;2022-07-10T01:31:42;6;6;
55518;PMS5003;41724;51.176;-0.708;2022-07-10T01:34:09;5;5;
55518;PMS5003;41724;51.176;-0.708;2022-07-10T01:36:37;6;4;
55518;PMS5003;41724;51.176;-0.708;2022-07-10T01:39:04;4;4;
55518;PMS5003;41724;51.176;-0.708;2022-07-10T01:41:32;5;5;
55518;PMS5003;41724;51.176;-0.708;2022-07-10T01:44:00;5;5;
55518;PMS5003;41724;51.176;-0.708;2022-07-10T01:46:28;5;5;
55518;PMS5003;41724;51.176;-0.708;2022-07-10T01:48:55;6;6;
55518;PMS5003;41724;51.176;-0.708;2022-07-10T01:51:23;6;6;
55518;PMS5003;41724;51.176;-0.708;2022-07-10T01:53:51;7;6;
55518;PMS5003;41724;51.176;-0.708;2022-07-10T01:56:18;5;5;
55518;PMS5003;41724;51.176;-0.708;2022-07-10T01:58:45;6;6;
55518;PMS5003;41724;51.176;-0.708;2022-07-10T02:01:12;5;5;
55518;PMS5003;41724;51.176;-0.708;2022-07-10T02:03:39;4;4;
55518;PMS5003;41724;51.176;-0.708;2022-07-10T02:06:07;6;4;
55518;PMS5003;41724;51.176;-0.708;2022-07-10T02:08:34;5;5;
55518;PMS5003;41724;51.176;-0.708;2022-07-10T02:11:02;5;5;
55518;PMS5003;41724;51.176;-0.708;2022-07-10T02:13:30;7;6;
55518;PMS5003;41724;51.176;-0.708;2022-07-10T02:15:57;6;6;
55518;PMS5003;41724;51.176;-0.708;2022-07-10T02:18:24;4;4;
55518;PMS5003;41724;51.176;-0.708;2022-07-10T02:20:52;4;4;
55518;PMS5003;41724;51.176;-0.708;2022-07-10T02:23:19;7;7;
55518;PMS5003;41724;51.176;-0.708;2022-07-10T02:25:46;5;5;
55518;PMS5003;41724;51.176;-0.708;2022-07-10T02:28:13;8;8;
55518;PMS5003;41724;51.176;-0.708;2022-07-10T02:30:41;8;8;
55518;PMS5003;41724;51.176;-0.708;2022-07-10T02:33:09;9;7;
55518;PMS5003;41724;51.176;-0.708;2022-07-10T02:35:36;8;8;
55518;PMS5003;41724;51.176;-0.708;2022-07-10T02:38:03;7;7;
55518;PMS5003;41724;51.176;-0.708;2022-07-10T02:40:31;8;7;
55518;PMS5003;41724;51.176;-0.708;2022-07-10T02:42:58;8;8;
55518;PMS5003;41724;51.176;-0.708;2022-07-10T02:45:25;7;7;
55518;PMS5003;41724;51.176;-0.708;2022-07-10T02:47:53;8;8;
55518;PMS5003;41724;51.176;-0.708;2022-07-10T02:50:20;7;7;
55518;PMS5003;41724;51.176;-0.708;2022-07-10T02:52:47;9;9;
55518;PMS5003;41724;51.176;-0.708;2022-07-10T02:55:15;8;8;
55518;PMS5003;41724;51.176;-0.708;2022-07-10T02:57:42;7;7;
55518;PMS5003;41724;51.176;-0.708;2022-07-10T03:00:10;8;8;
55518;PMS5003;41724;51.176;-0.708;2022-07-10T03:02:38;10;10;
55518;PMS5003;41724;51.176;-0.708;2022-07-10T03:05:06;8;8;
55518;PMS5003;41724;51.176;-0.708;2022-07-10T03:07:33;9;9;
55518;PMS5003;41724;51.176;-0.708;2022-07-10T03:10:01;8;8;
55518;PMS5003;41724;51.176;-0.708;2022-07-10T03:12:28;8;8;
55518;PMS5003;41724;51.176;-0.708;2022-07-10T03:14:55;9;9;
55518;PMS5003;41724;51.176;-0.708;2022-07-10T03:17:23;8;8;
55518;PMS5003;41724;51.176;-0.708;2022-07-10T03:19:50;7;7;
55518;PMS5003;41724;51.176;-0.708;2022-07-10T03:22:18;9;9;
55518;PMS5003;41724;51.176;-0.708;2022-07-10T03:24:46;8;8;
55518;PMS5003;41724;51.176;-0.708;2022-07-10T03:27:13;8;8;
55518;PMS5003;41724;51.176;-0.708;2022-07-10T03:29:41;10;10;
55518;PMS5003;41724;51.176;-0.708;2022-07-10T03:32:08;7;7;
55518;PMS5003;41724;51.176;-0.708;2022-07-10T03:34:36;7;7;
55518;PMS5003;41724;51.176;-0.708;2022-07-10T03:37:03;8;8;
55518;PMS5003;41724;51.176;-0.708;2022-07-10T03:39:32;8;8;
55518;PMS5003;41724;51.176;-0.708;2022-07-10T03:41:59;7;7;
55518;PMS5003;41724;51.176;-0.708;2022-07-10T03:44:27;9;9;
55518;PMS5003;41724;51.176;-0.708;2022-07-10T03:46:54;9;9;
55518;PMS5003;41724;51.176;-0.708;2022-07-10T03:49:21;9;9;
55518;PMS5003;41724;51.176;-0.708;2022-07-10T03:51:49;10;9;
55518;PMS5003;41724;51.176;-0.708;2022-07-10T03:54:16;8;8;
55518;PMS5003;41724;51.176;-0.708;2022-07-10T03:56:43;7;7;
55518;PMS5003;41724;51.176;-0.708;2022-07-10T03:59:11;8;8;
55518;PMS5003;41724;51.176;-0.708;2022-07-10T04:01:38;10;10;
55518;PMS5003;41724;51.176;-0.708;2022-07-10T04:04:05;7;7;
55518;PMS5003;41724;51.176;-0.708;2022-07-10T04:06:33;10;9;
55518;PMS5003;41724;51.176;-0.708;2022-07-10T04:09:00;7;7;
55518;PMS5003;41724;51.176;-0.708;2022-07-10T04:11:27;9;8;
55518;PMS5003;41724;51.176;-0.708;2022-07-10T04:13:55;6;6;
55518;PMS5003;41724;51.176;-0.708;2022-07-10T04:16:22;7;7;
55518;PMS5003;41724;51.176;-0.708;2022-07-10T04:18:49;8;8;
55518;PMS5003;41724;51.176;-0.708;2022-07-10T04:21:17;10;10;
55518;PMS5003;41724;51.176;-0.708;2022-07-10T04:23:44;8;8;
55518;PMS5003;41724;51.176;-0.708;2022-07-10T04:26:11;7;7;
55518;PMS5003;41724;51.176;-0.708;2022-07-10T04:28:38;8;7;
55518;PMS5003;41724;51.176;-0.708;2022-07-10T04:31:06;8;8;
55518;PMS5003;41724;51.176;-0.708;2022-07-10T04:33:34;12;10;
55518;PMS5003;41724;51.176;-0.708;2022-07-10T04:36:01;10;10;
55518;PMS5003;41724;51.176;-0.708;2022-07-10T04:38:29;8;8;
55518;PMS5003;41724;51.176;-0.708;2022-07-10T04:40:56;11;9;
55518;PMS5003;41724;51.176;-0.708;2022-07-10T04:43:23;7;7;
55518;PMS5003;41724;51.176;-0.708;2022-07-10T04:45:51;8;8;
55518;PMS5003;41724;51.176;-0.708;2022-07-10T04:48:18;10;10;
55518;PMS5003;41724;51.176;-0.708;2022-07-10T04:50:45;10;10;
55518;PMS5003;41724;51.176;-0.708;2022-07-10T04:53:13;10;10;
55518;PMS5003;41724;51.176;-0.708;2022-07-10T04:55:40;8;8;
55518;PMS5003;41724;51.176;-0.708;2022-07-10T04:58:07;18;15;
55518;PMS5003;41724;51.176;-0.708;2022-07-10T05:00:34;10;10;
55518;PMS5003;41724;51.176;-0.708;2022-07-10T05:03:01;13;13;
55518;PMS5003;41724;51.176;-0.708;2022-07-10T05:05:29;15;12;
55518;PMS5003;41724;51.176;-0.708;2022-07-10T05:07:56;18;16;
55518;PMS5003;41724;51.176;-0.708;2022-07-10T05:10:23;16;16;
55518;PMS5003;41724;51.176;-0.708;2022-07-10T05:12:50;17;17;
55518;PMS5003;41724;51.176;-0.708;2022-07-10T05:15:17;17;16;
55518;PMS5003;41724;51.176;-0.708;2022-07-10T05:17:44;15;15;
55518;PMS5003;41724;51.176;-0.708;2022-07-10T05:20:11;13;13;
55518;PMS5003;41724;51.176;-0.708;2022-07-10T05:22:38;14;14;
55518;PMS5003;41724;51.176;-0.708;2022-07-10T05:25:06;14;14;
55518;PMS5003;41724;51.176;-0.708;2022-07-10T05:27:34;14;12;
55518;PMS5003;41724;51.176;-0.708;2022-07-10T05:30:02;14;13;
55518;PMS5003;41724;51.176;-0.708;2022-07-10T05:32:30;14;14;
55518;PMS5003;41724;51.176;-0.708;2022-07-10T05:34:57;14;14;
55518;PMS5003;41724;51.176;-0.708;2022-07-10T05:37:24;13;13;
55518;PMS5003;41724;51.176;-0.708;2022-07-10T05:39:51;13;13;
55518;PMS5003;41724;51.176;-0.708;2022-07-10T05:42:18;13;13;
55518;PMS5003;41724;51.176;-0.708;2022-07-10T05:44:46;13;13;
55518;PMS5003;41724;51.176;-0.708;2022-07-10T05:47:13;13;13;
55518;PMS5003;41724;51.176;-0.708;2022-07-10T05:49:40;15;13;
55518;PMS5003;41724;51.176;-0.708;2022-07-10T05:52:08;11;11;
55518;PMS5003;41724;51.176;-0.708;2022-07-10T05:54:36;15;12;
55518;PMS5003;41724;51.176;-0.708;2022-07-10T05:57:03;15;13;
55518;PMS5003;41724;51.176;-0.708;2022-07-10T05:59:32;15;13;
55518;PMS5003;41724;51.176;-0.708;2022-07-10T06:02:00;19;18;
55518;PMS5003;41724;51.176;-0.708;2022-07-10T06:04:27;18;16;
55518;PMS5003;41724;51.176;-0.708;2022-07-10T06:06:55;13;13;
55518;PMS5003;41724;51.176;-0.708;2022-07-10T06:09:22;12;12;
55518;PMS5003;41724;51.176;-0.708;2022-07-10T06:11:49;13;12;
55518;PMS5003;41724;51.176;-0.708;2022-07-10T06:14:17;12;11;
55518;PMS5003;41724;51.176;-0.708;2022-07-10T06:16:44;12;12;
55518;PMS5003;41724;51.176;-0.708;2022-07-10T06:19:11;12;12;
55518;PMS5003;41724;51.176;-0.708;2022-07-10T06:21:38;14;14;
55518;PMS5003;41724;51.176;-0.708;2022-07-10T06:24:06;10;10;
55518;PMS5003;41724;51.176;-0.708;2022-07-10T06:26:33;15;14;
55518;PMS5003;41724;51.176;-0.708;2022-07-10T06:29:03;13;13;
55518;PMS5003;41724;51.176;-0.708;2022-07-10T06:31:30;18;14;
55518;PMS5003;41724;51.176;-0.708;2022-07-10T06:33:57;11;11;
55518;PMS5003;41724;51.176;-0.708;2022-07-10T06:36:25;12;11;
55518;PMS5003;41724;51.176;-0.708;2022-07-10T06:38:52;13;13;
55518;PMS5003;41724;51.176;-0.708;2022-07-10T06:41:19;12;11;
55518;PMS5003;41724;51.176;-0.708;2022-07-10T06:43:46;12;12;
55518;PMS5003;41724;51.176;-0.708;2022-07-10T06:46:13;11;11;
55518;PMS5003;41724;51.176;-0.708;2022-07-10T06:48:41;9;9;
55518;PMS5003;41724;51.176;-0.708;2022-07-10T06:51:08;11;11;
55518;PMS5003;41724;51.176;-0.708;2022-07-10T06:53:35;10;10;
55518;PMS5003;41724;51.176;-0.708;2022-07-10T06:56:03;7;7;
55518;PMS5003;41724;51.176;-0.708;2022-07-10T06:58:31;10;10;
55518;PMS5003;41724;51.176;-0.708;2022-07-10T07:00:58;8;8;
55518;PMS5003;41724;51.176;-0.708;2022-07-10T07:03:25;9;9;
55518;PMS5003;41724;51.176;-0.708;2022-07-10T07:05:52;9;9;
55518;PMS5003;41724;51.176;-0.708;2022-07-10T07:08:20;7;7;
55518;PMS5003;41724;51.176;-0.708;2022-07-10T07:10:47;7;7;
55518;PMS5003;41724;51.176;-0.708;2022-07-10T07:13:15;10;10;
55518;PMS5003;41724;51.176;-0.708;2022-07-10T07:15:43;8;7;
55518;PMS5003;41724;51.176;-0.708;2022-07-10T07:18:11;9;9;
55518;PMS5003;41724;51.176;-0.708;2022-07-10T07:20:38;10;9;
55518;PMS5003;41724;51.176;-0.708;2022-07-10T07:23:05;9;9;
55518;PMS5003;41724;51.176;-0.708;2022-07-10T07:25:32;8;8;
55518;PMS5003;41724;51.176;-0.708;2022-07-10T07:28:00;6;6;
55518;PMS5003;41724;51.176;-0.708;2022-07-10T07:30:27;7;7;
55518;PMS5003;41724;51.176;-0.708;2022-07-10T07:32:54;9;9;
55518;PMS5003;41724;51.176;-0.708;2022-07-10T07:35:22;7;7;
55518;PMS5003;41724;51.176;-0.708;2022-07-10T07:37:50;7;7;
55518;PMS5003;41724;51.176;-0.708;2022-07-10T07:40:18;7;6;
55518;PMS5003;41724;51.176;-0.708;2022-07-10T07:42:47;7;7;
55518;PMS5003;41724;51.176;-0.708;2022-07-10T07:45:15;8;6;
55518;PMS5003;41724;51.176;-0.708;2022-07-10T07:47:43;7;5;
55518;PMS5003;41724;51.176;-0.708;2022-07-10T07:50:11;2;2;
55518;PMS5003;41724;51.176;-0.708;2022-07-10T07:52:39;4;4;
55518;PMS5003;41724;51.176;-0.708;2022-07-10T07:55:06;4;4;
55518;PMS5003;41724;51.176;-0.708;2022-07-10T07:57:34;6;6;
55518;PMS5003;41724;51.176;-0.708;2022-07-10T08:00:02;4;4;
55518;PMS5003;41724;51.176;-0.708;2022-07-10T08:02:31;6;4;
55518;PMS5003;41724;51.176;-0.708;2022-07-10T08:04:58;4;4;
55518;PMS5003;41724;51.176;-0.708;2022-07-10T08:07:36;5;5;
55518;PMS5003;41724;51.176;-0.708;2022-07-10T08:10:05;4;4;
55518;PMS5003;41724;51.176;-0.708;2022-07-10T08:12:35;4;4;
55518;PMS5003;41724;51.176;-0.708;2022-07-10T08:15:02;4;4;
55518;PMS5003;41724;51.176;-0.708;2022-07-10T08:17:30;6;5;
55518;PMS5003;41724;51.176;-0.708;2022-07-10T08:19:58;5;5;
55518;PMS5003;41724;51.176;-0.708;2022-07-10T08:22:25;5;5;
55518;PMS5003;41724;51.176;-0.708;2022-07-10T08:24:52;5;5;
55518;PMS5003;41724;51.176;-0.708;2022-07-10T08:27:19;5;5;
55518;PMS5003;41724;51.176;-0.708;2022-07-10T08:29:47;5;5;
55518;PMS5003;41724;51.176;-0.708;2022-07-10T08:32:14;6;6;
55518;PMS5003;41724;51.176;-0.708;2022-07-10T08:34:41;7;6;
55518;PMS5003;41724;51.176;-0.708;2022-07-10T08:37:09;7;6;
55518;PMS5003;41724;51.176;-0.708;2022-07-10T08:39:36;4;4;
55518;PMS5003;41724;51.176;-0.708;2022-07-10T08:42:04;6;5;
55518;PMS5003;41724;51.176;-0.708;2022-07-10T08:44:32;5;5;
55518;PMS5003;41724;51.176;-0.708;2022-07-10T08:47:01;5;5;
55518;PMS5003;41724;51.176;-0.708;2022-07-10T08:49:30;5;5;
55518;PMS5003;41724;51.176;-0.708;2022-07-10T08:51:58;5;5;
55518;PMS5003;41724;51.176;-0.708;2022-07-10T08:54:30;5;5;
55518;PMS5003;41724;51.176;-0.708;2022-07-10T08:56:58;5;5;
55518;PMS5003;41724;51.176;-0.708;2022-07-10T08:59:27;7;6;
55518;PMS5003;41724;51.176;-0.708;2022-07-10T09:01:55;6;6;
55518;PMS5003;41724;51.176;-0.708;2022-07-10T09:04:23;4;4;
55518;PMS5003;41724;51.176;-0.708;2022-07-10T09:06:52;5;5;
55518;PMS5003;41724;51.176;-0.708;2022-07-10T09:09:20;5;5;
55518;PMS5003;41724;51.176;-0.708;2022-07-10T09:11:48;3;3;
55518;PMS5003;41724;51.176;-0.708;2022-07-10T09:14:22;5;5;
55518;PMS5003;41724;51.176;-0.708;2022-07-10T09:16:50;4;2;
55518;PMS5003;41724;51.176;-0.708;2022-07-10T09:19:18;6;4;
55518;PMS5003;41724;51.176;-0.708;2022-07-10T09:21:46;5;5;
55518;PMS5003;41724;51.176;-0.708;2022-07-10T09:24:15;4;4;
55518;PMS5003;41724;51.176;-0.708;2022-07-10T09:26:42;5;5;
55518;PMS5003;41724;51.176;-0.708;2022-07-10T09:29:14;6;6;
55518;PMS5003;41724;51.176;-0.708;2022-07-10T09:31:49;5;5;
55518;PMS5003;41724;51.176;-0.708;2022-07-10T09:34:16;6;4;
55518;PMS5003;41724;51.176;-0.708;2022-07-10T09:36:43;6;6;
55518;PMS5003;41724;51.176;-0.708;2022-07-10T09:39:11;7;4;
55518;PMS5003;41724;51.176;-0.708;2022-07-10T09:41:38;6;6;
55518;PMS5003;41724;51.176;-0.708;2022-07-10T09:44:05;4;4;
55518;PMS5003;41724;51.176;-0.708;2022-07-10T09:46:33;5;5;
55518;PMS5003;41724;51.176;-0.708;2022-07-10T09:49:02;5;5;
55518;PMS5003;41724;51.176;-0.708;2022-07-10T09:51:32;7;6;
55518;PMS5003;41724;51.176;-0.708;2022-07-10T09:54:01;3;3;
55518;PMS5003;41724;51.176;-0.708;2022-07-10T09:56:32;6;6;
55518;PMS5003;41724;51.176;-0.708;2022-07-10T09:59:08;6;6;
55518;PMS5003;41724;51.176;-0.708;2022-07-10T10:01:36;5;5;
55518;PMS5003;41724;51.176;-0.708;2022-07-10T10:04:03;6;6;
55518;PMS5003;41724;51.176;-0.708;2022-07-10T10:06:30;5;5;
55518;PMS5003;41724;51.176;-0.708;2022-07-10T10:09:03;4;4;
55518;PMS5003;41724;51.176;-0.708;2022-07-10T10:11:35;8;7;
55518;PMS5003;41724;51.176;-0.708;2022-07-10T10:14:03;4;4;
55518;PMS5003;41724;51.176;-0.708;2022-07-10T10:16:34;6;6;
55518;PMS5003;41724;51.176;-0.708;2022-07-10T10:19:03;5;5;
55518;PMS5003;41724;51.176;-0.708;2022-07-10T10:21:35;5;5;
55518;PMS5003;41724;51.176;-0.708;2022-07-10T10:24:02;5;5;
55518;PMS5003;41724;51.176;-0.708;2022-07-10T10:26:29;6;6;
55518;PMS5003;41724;51.176;-0.708;2022-07-10T10:28:57;7;5;
55518;PMS5003;41724;51.176;-0.708;2022-07-10T10:31:26;7;6;
55518;PMS5003;41724;51.176;-0.708;2022-07-10T10:33:54;6;5;
55518;PMS5003;41724;51.176;-0.708;2022-07-10T10:36:53;5;5;
55518;PMS5003;41724;51.176;-0.708;2022-07-10T10:39:20;4;4;
55518;PMS5003;41724;51.176;-0.708;2022-07-10T10:41:48;5;5;
55518;PMS5003;41724;51.176;-0.708;2022-07-10T10:44:20;6;6;
55518;PMS5003;41724;51.176;-0.708;2022-07-10T10:46:57;5;5;
55518;PMS5003;41724;51.176;-0.708;2022-07-10T10:49:26;6;6;
55518;PMS5003;41724;51.176;-0.708;2022-07-10T10:52:14;6;6;
55518;PMS5003;41724;51.176;-0.708;2022-07-10T10:55:14;4;4;
55518;PMS5003;41724;51.176;-0.708;2022-07-10T10:57:42;5;5;
55518;PMS5003;41724;51.176;-0.708;2022-07-10T11:00:11;3;3;
55518;PMS5003;41724;51.176;-0.708;2022-07-10T11:02:41;5;5;
55518;PMS5003;41724;51.176;-0.708;2022-07-10T11:06:13;7;5;
55518;PMS5003;41724;51.176;-0.708;2022-07-10T11:08:45;5;5;
55518;PMS5003;41724;51.176;-0.708;2022-07-10T11:11:37;5;5;
55518;PMS5003;41724;51.176;-0.708;2022-07-10T11:14:06;5;5;
55518;PMS5003;41724;51.176;-0.708;2022-07-10T11:16:35;6;6;
55518;PMS5003;41724;51.176;-0.708;2022-07-10T11:19:04;5;5;
55518;PMS5003;41724;51.176;-0.708;2022-07-10T11:21:33;5;5;
55518;PMS5003;41724;51.176;-0.708;2022-07-10T11:24:20;4;4;
55518;PMS5003;41724;51.176;-0.708;2022-07-10T11:27:11;6;6;
55518;PMS5003;41724;51.176;-0.708;2022-07-10T11:29:56;5;5;
55518;PMS5003;41724;51.176;-0.708;2022-07-10T11:32:24;4;4;
55518;PMS5003;41724;51.176;-0.708;2022-07-10T11:34:52;6;5;
55518;PMS5003;41724;51.176;-0.708;2022-07-10T11:37:19;5;5;
55518;PMS5003;41724;51.176;-0.708;2022-07-10T11:39:46;4;4;
55518;PMS5003;41724;51.176;-0.708;2022-07-10T11:42:13;5;5;
55518;PMS5003;41724;51.176;-0.708;2022-07-10T11:44:41;5;5;
55518;PMS5003;41724;51.176;-0.708;2022-07-10T11:47:08;5;5;
55518;PMS5003;41724;51.176;-0.708;2022-07-10T11:49:43;4;4;
55518;PMS5003;41724;51.176;-0.708;2022-07-10T11:52:11;5;4;
55518;PMS5003;41724;51.176;-0.708;2022-07-10T11:54:38;6;5;
55518;PMS5003;41724;51.176;-0.708;2022-07-10T11:57:06;5;5;
55518;PMS5003;41724;51.176;-0.708;2022-07-10T11:59:33;6;5;
55518;PMS5003;41724;51.176;-0.708;2022-07-10T12:02:00;5;5;
55518;PMS5003;41724;51.176;-0.708;2022-07-10T12:04:28;3;3;
55518;PMS5003;41724;51.176;-0.708;2022-07-10T12:06:57;6;6;
55518;PMS5003;41724;51.176;-0.708;2022-07-10T12:09:24;5;5;
55518;PMS5003;41724;51.176;-0.708;2022-07-10T12:11:59;6;6;
55518;PMS5003;41724;51.176;-0.708;2022-07-10T12:14:28;5;5;
55518;PMS5003;41724;51.176;-0.708;2022-07-10T12:16:55;7;7;
55518;PMS5003;41724;51.176;-0.708;2022-07-10T12:19:24;4;4;
55518;PMS5003;41724;51.176;-0.708;2022-07-10T12:21:53;4;3;
55518;PMS5003;41724;51.176;-0.708;2022-07-10T12:24:21;3;3;
55518;PMS5003;41724;51.176;-0.708;2022-07-10T12:26:48;3;3;
55518;PMS5003;41724;51.176;-0.708;2022-07-10T12:29:19;6;4;
55518;PMS5003;41724;51.176;-0.708;2022-07-10T12:31:49;4;4;
55518;PMS5003;41724;51.176;-0.708;2022-07-10T12:34:18;6;6;
55518;PMS5003;41724;51.176;-0.708;2022-07-10T12:36:46;5;3;
55518;PMS5003;41724;51.176;-0.708;2022-07-10T12:39:15;4;4;
55518;PMS5003;41724;51.176;-0.708;2022-07-10T12:41:59;3;3;
55518;PMS5003;41724;51.176;-0.708;2022-07-10T12:44:32;3;3;
55518;PMS5003;41724;51.176;-0.708;2022-07-10T12:47:00;4;4;
55518;PMS5003;41724;51.176;-0.708;2022-07-10T12:49:28;6;5;
55518;PMS5003;41724;51.176;-0.708;2022-07-10T12:51:55;3;3;
55518;PMS5003;41724;51.176;-0.708;2022-07-10T12:54:30;4;4;
55518;PMS5003;41724;51.176;-0.708;2022-07-10T12:56:58;4;4;
55518;PMS5003;41724;51.176;-0.708;2022-07-10T12:59:26;5;5;
55518;PMS5003;41724;51.176;-0.708;2022-07-10T13:01:54;4;4;
55518;PMS5003;41724;51.176;-0.708;2022-07-10T13:04:23;6;5;
55518;PMS5003;41724;51.176;-0.708;2022-07-10T13:06:51;3;3;
55518;PMS5003;41724;51.176;-0.708;2022-07-10T13:09:19;5;5;
55518;PMS5003;41724;51.176;-0.708;2022-07-10T13:11:48;4;4;
55518;PMS5003;41724;51.176;-0.708;2022-07-10T13:14:15;7;6;
55518;PMS5003;41724;51.176;-0.708;2022-07-10T13:16:42;8;6;
55518;PMS5003;41724;51.176;-0.708;2022-07-10T13:19:09;4;4;
55518;PMS5003;41724;51.176;-0.708;2022-07-10T13:21:37;3;3;
55518;PMS5003;41724;51.176;-0.708;2022-07-10T13:24:04;5;5;
55518;PMS5003;41724;51.176;-0.708;2022-07-10T13:26:32;5;3;
55518;PMS5003;41724;51.176;-0.708;2022-07-10T13:28:59;3;3;
55518;PMS5003;41724;51.176;-0.708;2022-07-10T13:31:26;5;5;
55518;PMS5003;41724;51.176;-0.708;2022-07-10T13:33:54;3;3;
55518;PMS5003;41724;51.176;-0.708;2022-07-10T13:36:22;5;5;
55518;PMS5003;41724;51.176;-0.708;2022-07-10T13:38:49;4;4;
55518;PMS5003;41724;51.176;-0.708;2022-07-10T13:41:16;4;4;
55518;PMS5003;41724;51.176;-0.708;2022-07-10T13:43:44;5;5;
55518;PMS5003;41724;51.176;-0.708;2022-07-10T13:46:11;4;4;
55518;PMS5003;41724;51.176;-0.708;2022-07-10T13:48:38;3;3;
55518;PMS5003;41724;51.176;-0.708;2022-07-10T13:51:05;6;5;
55518;PMS5003;41724;51.176;-0.708;2022-07-10T13:53:33;6;5;
55518;PMS5003;41724;51.176;-0.708;2022-07-10T13:56:00;6;6;
55518;PMS5003;41724;51.176;-0.708;2022-07-10T13:58:27;7;7;
55518;PMS5003;41724;51.176;-0.708;2022-07-10T14:00:55;4;4;
55518;PMS5003;41724;51.176;-0.708;2022-07-10T14:03:22;4;4;
55518;PMS5003;41724;51.176;-0.708;2022-07-10T14:05:49;5;5;
55518;PMS5003;41724;51.176;-0.708;2022-07-10T14:08:16;2;2;
55518;PMS5003;41724;51.176;-0.708;2022-07-10T14:10:44;4;4;
55518;PMS5003;41724;51.176;-0.708;2022-07-10T14:13:11;3;3;
55518;PMS5003;41724;51.176;-0.708;2022-07-10T14:15:38;6;4;
55518;PMS5003;41724;51.176;-0.708;2022-07-10T14:18:06;4;4;
55518;PMS5003;41724;51.176;-0.708;2022-07-10T14:20:33;4;4;
55518;PMS5003;41724;51.176;-0.708;2022-07-10T14:23:00;5;5;
55518;PMS5003;41724;51.176;-0.708;2022-07-10T14:25:28;4;4;
55518;PMS5003;41724;51.176;-0.708;2022-07-10T14:27:55;4;4;
55518;PMS5003;41724;51.176;-0.708;2022-07-10T14:30:22;4;4;
55518;PMS5003;41724;51.176;-0.708;2022-07-10T14:32:49;4;4;
55518;PMS5003;41724;51.176;-0.708;2022-07-10T14:35:17;4;3;
55518;PMS5003;41724;51.176;-0.708;2022-07-10T14:37:44;3;3;
55518;PMS5003;41724;51.176;-0.708;2022-07-10T14:40:12;5;5;
55518;PMS5003;41724;51.176;-0.708;2022-07-10T14:42:39;3;3;
55518;PMS5003;41724;51.176;-0.708;2022-07-10T14:45:06;3;3;
55518;PMS5003;41724;51.176;-0.708;2022-07-10T14:47:34;4;4;
55518;PMS5003;41724;51.176;-0.708;2022-07-10T14:50:02;3;3;
55518;PMS5003;41724;51.176;-0.708;2022-07-10T14:52:29;3;3;
55518;PMS5003;41724;51.176;-0.708;2022-07-10T14:54:56;4;4;
55518;PMS5003;41724;51.176;-0.708;2022-07-10T14:57:24;3;3;
55518;PMS5003;41724;51.176;-0.708;2022-07-10T14:59:51;5;4;
55518;PMS5003;41724;51.176;-0.708;2022-07-10T15:02:19;2;2;
55518;PMS5003;41724;51.176;-0.708;2022-07-10T15:04:46;4;3;
55518;PMS5003;41724;51.176;-0.708;2022-07-10T15:07:14;3;3;
55518;PMS5003;41724;51.176;-0.708;2022-07-10T15:09:41;3;3;
55518;PMS5003;41724;51.176;-0.708;2022-07-10T15:12:08;3;3;
55518;PMS5003;41724;51.176;-0.708;2022-07-10T15:14:36;3;3;
55518;PMS5003;41724;51.176;-0.708;2022-07-10T15:17:03;2;2;
55518;PMS5003;41724;51.176;-0.708;2022-07-10T15:19:30;3;3;
55518;PMS5003;41724;51.176;-0.708;2022-07-10T15:21:58;3;3;
55518;PMS5003;41724;51.176;-0.708;2022-07-10T15:24:25;5;4;
55518;PMS5003;41724;51.176;-0.708;2022-07-10T15:26:52;3;3;
55518;PMS5003;41724;51.176;-0.708;2022-07-10T15:29:20;4;4;
55518;PMS5003;41724;51.176;-0.708;2022-07-10T15:31:47;3;3;
55518;PMS5003;41724;51.176;-0.708;2022-07-10T15:34:15;3;3;
55518;PMS5003;41724;51.176;-0.708;2022-07-10T15:36:42;3;3;
55518;PMS5003;41724;51.176;-0.708;2022-07-10T15:39:09;2;2;
55518;PMS5003;41724;51.176;-0.708;2022-07-10T15:41:36;3;3;
55518;PMS5003;41724;51.176;-0.708;2022-07-10T15:44:04;2;2;
55518;PMS5003;41724;51.176;-0.708;2022-07-10T15:46:32;3;3;
55518;PMS5003;41724;51.176;-0.708;2022-07-10T15:48:59;3;3;
55518;PMS5003;41724;51.176;-0.708;2022-07-10T15:51:27;4;3;
55518;PMS5003;41724;51.176;-0.708;2022-07-10T15:53:55;2;2;
55518;PMS5003;41724;51.176;-0.708;2022-07-10T15:56:22;3;3;
55518;PMS5003;41724;51.176;-0.708;2022-07-10T15:58:50;2;2;
55518;PMS5003;41724;51.176;-0.708;2022-07-10T16:01:17;4;4;
55518;PMS5003;41724;51.176;-0.708;2022-07-10T16:03:44;3;3;
55518;PMS5003;41724;51.176;-0.708;2022-07-10T16:06:12;3;3;
55518;PMS5003;41724;51.176;-0.708;2022-07-10T16:08:39;3;3;
55518;PMS5003;41724;51.176;-0.708;2022-07-10T16:11:06;5;3;
55518;PMS5003;41724;51.176;-0.708;2022-07-10T16:13:34;5;3;
55518;PMS5003;41724;51.176;-0.708;2022-07-10T16:16:01;7;5;
55518;PMS5003;41724;51.176;-0.708;2022-07-10T16:18:28;6;6;
55518;PMS5003;41724;51.176;-0.708;2022-07-10T16:20:55;4;4;
55518;PMS5003;41724;51.176;-0.708;2022-07-10T16:23:23;4;4;
55518;PMS5003;41724;51.176;-0.708;2022-07-10T16:25:50;4;4;
55518;PMS5003;41724;51.176;-0.708;2022-07-10T16:28:17;3;3;
55518;PMS5003;41724;51.176;-0.708;2022-07-10T16:30:45;4;4;
55518;PMS5003;41724;51.176;-0.708;2022-07-10T16:33:12;4;4;
55518;PMS5003;41724;51.176;-0.708;2022-07-10T16:35:39;4;4;